Lower Matecumbe Key, Florida
Current Conditions -  °F | °C
As of 3:53 AM on Friday 19 Dec 2014 (Local Time) from KMTH Reporting Station
Clear Clear  
Wind Chill: 19°   Ceiling: Unl
Heat Index: 19°   Visibility: 10mi
Dew Point: 17°   Wind: 7mph
Humidity: 87%   Direction: 10°N
Pressure: 30.05"   Gusts: NA
Location:  24.8649°N, 80.7192°W
Report Text: KMTH 190853Z AUTO 01006KT 10SM CLR 19/17 A3005 RMK AO2 SLP177 T01890167 56010
Loading
Personal Weather Stations






























Interactive Weather Map New forecast layout! Learn more

10-Day Weather Forecast

Advertisements
Track Severe Weather on mobile